Time;durP1;ratioP1;P1;durP2;ratioP2;P2;SDS_P1;SDS_P2;PMS_P1;PMS_P2;Temp;Humidity;BMP_temperature;BMP_pressure;BME280_temperature;BME280_humidity;BME280_pressure;Samples;Min_cycle;Max_cycle;Signal;HPM_P1;HPM_P2
2021/08/26 00:01:17;;;;;;;18.83;5.20;;;13.40;96.80;;;;;;5039665;28;20093;-71
2021/08/26 00:06:21;;;;;;;25.33;4.68;;;13.40;97.00;;;;;;5041129;28;20091;-71
2021/08/26 00:08:50;;;;;;;23.90;6.05;;;13.30;96.90;;;;;;5032427;28;20036;-69
2021/08/26 00:11:19;;;;;;;27.52;4.43;;;13.30;96.90;;;;;;5033359;28;20066;-69
2021/08/26 00:13:46;;;;;;;23.92;5.15;;;13.30;96.90;;;;;;5032384;28;20419;-69
2021/08/26 00:16:13;;;;;;;23.67;5.35;;;13.30;97.10;;;;;;5034021;28;20024;-70
2021/08/26 00:18:40;;;;;;;24.05;5.30;;;13.30;97.10;;;;;;5023367;28;20116;-70
2021/08/26 00:21:06;;;;;;;25.33;5.10;;;13.30;97.20;;;;;;5027823;28;20516;-69
2021/08/26 00:23:32;;;;;;;22.33;4.80;;;13.30;97.20;;;;;;5040771;28;20144;-69
2021/08/26 00:25:57;;;;;;;19.83;4.30;;;13.20;97.20;;;;;;5030037;28;20100;-70
2021/08/26 00:28:23;;;;;;;18.70;4.95;;;13.20;97.40;;;;;;5037842;28;20033;-70
2021/08/26 00:30:49;;;;;;;23.60;5.10;;;13.10;97.40;;;;;;5030149;28;20037;-69
2021/08/26 00:33:15;;;;;;;24.30;4.97;;;13.10;97.60;;;;;;5029130;28;20405;-70
2021/08/26 00:35:41;;;;;;;36.70;5.95;;;13.10;97.60;;;;;;5035049;28;20251;-69
2021/08/26 00:38:07;;;;;;;20.92;4.72;;;13.10;97.60;;;;;;5030830;28;20359;-70
2021/08/26 00:40:32;;;;;;;26.52;5.30;;;13.10;97.60;;;;;;5026226;28;20396;-70
2021/08/26 00:42:59;;;;;;;28.80;5.68;;;13.10;97.70;;;;;;5032435;28;20482;-70
2021/08/26 00:45:25;;;;;;;29.50;5.43;;;13.10;97.60;;;;;;5033249;28;20092;-70
2021/08/26 00:47:51;;;;;;;24.67;4.88;;;13.10;97.60;;;;;;5028618;28;20163;-70
2021/08/26 00:50:17;;;;;;;17.55;4.60;;;13.10;97.60;;;;;;5030637;28;20044;-70
2021/08/26 00:52:46;;;;;;;27.13;5.93;;;13.00;97.60;;;;;;5039727;28;20075;-69
2021/08/26 00:55:13;;;;;;;25.38;5.32;;;12.90;97.70;;;;;;5034552;28;20082;-70
2021/08/26 00:57:38;;;;;;;24.63;5.68;;;12.90;97.90;;;;;;5030137;28;20044;-70
2021/08/26 01:00:09;;;;;;;29.55;4.95;;;12.80;97.90;;;;;;5020929;28;20044;-69
2021/08/26 01:02:56;;;;;;;28.25;5.32;;;12.80;98.00;;;;;;5026340;28;20488;-69
2021/08/26 01:05:40;;;;;;;21.92;5.15;;;12.70;98.10;;;;;;5028117;28;20033;-70
2021/08/26 01:08:16;;;;;;;25.50;5.65;;;12.70;98.20;;;;;;5027560;28;20033;-70
2021/08/26 01:10:43;;;;;;;27.45;6.03;;;12.70;98.20;;;;;;5032701;28;20156;-70
2021/08/26 01:13:10;;;;;;;28.90;5.70;;;12.70;98.30;;;;;;5035913;28;20214;-70
2021/08/26 01:15:36;;;;;;;19.88;5.03;;;12.70;98.40;;;;;;5028788;28;20227;-69
2021/08/26 01:18:02;;;;;;;31.17;5.63;;;12.70;98.30;;;;;;5027349;28;20041;-69
2021/08/26 01:20:28;;;;;;;37.13;6.03;;;12.70;98.40;;;;;;5030281;28;20152;-70
2021/08/26 01:22:54;;;;;;;24.05;5.68;;;12.70;98.40;;;;;;5022115;28;20092;-68
2021/08/26 01:25:23;;;;;;;23.50;5.45;;;12.80;98.30;;;;;;5020510;28;20293;-70
2021/08/26 01:27:56;;;;;;;15.25;4.57;;;12.70;98.30;;;;;;5035884;28;20037;-69
2021/08/26 01:30:26;;;;;;;29.15;4.53;;;12.70;98.30;;;;;;5029384;28;20029;-69
2021/08/26 01:32:55;;;;;;;23.67;6.03;;;12.60;98.30;;;;;;5040909;28;20044;-69
2021/08/26 01:35:21;;;;;;;29.90;5.80;;;12.60;98.40;;;;;;5032119;28;20474;-70
2021/08/26 01:37:47;;;;;;;28.85;5.32;;;12.60;98.40;;;;;;5038981;28;20028;-70
2021/08/26 01:40:14;;;;;;;28.65;5.68;;;12.60;98.30;;;;;;5024053;28;20484;-70
2021/08/26 01:42:40;;;;;;;26.80;5.45;;;12.50;98.40;;;;;;5042080;28;20428;-69
2021/08/26 01:45:07;;;;;;;30.85;5.68;;;12.50;98.50;;;;;;5029333;28;20441;-70
2021/08/26 01:47:33;;;;;;;30.17;5.75;;;12.60;98.60;;;;;;5029871;28;20032;-70
2021/08/26 01:49:59;;;;;;;30.63;6.03;;;12.60;98.60;;;;;;5027901;28;20044;-70
2021/08/26 01:52:27;;;;;;;37.35;5.93;;;12.50;98.50;;;;;;5032285;28;20393;-69
2021/08/26 01:54:59;;;;;;;23.50;4.82;;;12.60;98.60;;;;;;5026722;28;20064;-69
2021/08/26 01:57:25;;;;;;;26.75;5.50;;;12.60;98.50;;;;;;5034260;28;20390;-69
2021/08/26 01:59:52;;;;;;;22.55;4.60;;;12.50;98.50;;;;;;5022192;28;20029;-69
2021/08/26 02:02:18;;;;;;;22.98;4.60;;;12.60;98.50;;;;;;5035375;28;20032;-70
2021/08/26 02:04:43;;;;;;;27.17;5.10;;;12.50;98.50;;;;;;5027580;28;20028;-69
2021/08/26 02:07:10;;;;;;;34.30;5.03;;;12.50;98.50;;;;;;5035210;28;20119;-69
2021/08/26 02:09:35;;;;;;;25.83;4.90;;;12.50;98.50;;;;;;5027588;28;20462;-69
2021/08/26 02:12:01;;;;;;;30.20;5.55;;;12.40;98.50;;;;;;5038569;28;20033;-68
2021/08/26 02:14:27;;;;;;;34.58;5.47;;;12.40;98.50;;;;;;5025675;28;20037;-69
2021/08/26 02:16:53;;;;;;;30.05;5.43;;;12.30;98.50;;;;;;5026180;28;20543;-69
2021/08/26 02:19:19;;;;;;;22.60;4.97;;;12.30;98.50;;;;;;5030863;28;20283;-69
2021/08/26 02:21:44;;;;;;;25.98;6.30;;;12.30;98.60;;;;;;5021870;28;20572;-69
2021/08/26 02:24:10;;;;;;;31.75;5.32;;;12.20;98.60;;;;;;5032369;28;20814;-70
2021/08/26 02:26:36;;;;;;;26.25;5.00;;;12.10;98.70;;;;;;5034244;28;20029;-69
2021/08/26 02:29:02;;;;;;;28.95;5.50;;;12.10;98.70;;;;;;5030256;28;20036;-69
2021/08/26 02:31:28;;;;;;;28.27;5.50;;;12.00;98.70;;;;;;5031681;28;20033;-69
2021/08/26 02:33:55;;;;;;;36.22;6.55;;;12.00;98.80;;;;;;5031853;28;20385;-69
2021/08/26 02:36:21;;;;;;;28.80;5.82;;;11.90;98.80;;;;;;5020871;28;20096;-69
2021/08/26 02:38:48;;;;;;;29.60;6.03;;;11.80;98.90;;;;;;5026305;28;20101;-69
2021/08/26 02:41:13;;;;;;;39.03;6.57;;;11.80;98.90;;;;;;5036011;28;20025;-69
2021/08/26 02:43:39;;;;;;;26.05;5.68;;;11.70;98.90;;;;;;5023523;28;20040;-69
2021/08/26 02:46:05;;;;;;;30.08;5.75;;;11.70;99.00;;;;;;5028294;28;20112;-69
2021/08/26 02:48:30;;;;;;;27.38;6.57;;;11.70;99.00;;;;;;5030919;28;20476;-69
2021/08/26 02:50:56;;;;;;;30.95;5.97;;;11.60;99.00;;;;;;5035296;28;20039;-69
2021/08/26 02:53:22;;;;;;;26.45;6.65;;;11.50;99.00;;;;;;5023026;28;20414;-69
2021/08/26 02:55:48;;;;;;;30.85;6.35;;;11.50;99.00;;;;;;5017791;28;20054;-69
2021/08/26 02:58:13;;;;;;;26.20;6.28;;;11.50;99.10;;;;;;5034192;28;20047;-69
2021/08/26 03:00:39;;;;;;;31.60;6.00;;;11.40;99.10;;;;;;5026834;28;20025;-69
2021/08/26 03:03:05;;;;;;;30.48;7.20;;;11.40;99.10;;;;;;5030382;28;20021;-69
2021/08/26 03:05:31;;;;;;;31.60;7.10;;;11.40;99.20;;;;;;5021889;28;20114;-70
2021/08/26 03:07:56;;;;;;;32.15;6.95;;;11.40;99.20;;;;;;5035537;28;20063;-69
2021/08/26 03:10:26;;;;;;;34.70;7.28;;;11.50;99.20;;;;;;5030901;28;20109;-71
2021/08/26 03:12:52;;;;;;;37.47;7.50;;;11.50;99.40;;;;;;5031261;28;20048;-69
2021/08/26 03:15:18;;;;;;;38.28;7.57;;;11.50;99.30;;;;;;5025749;28;20119;-69
2021/08/26 03:17:44;;;;;;;42.78;8.10;;;11.50;99.30;;;;;;5041603;28;20118;-69
2021/08/26 03:20:10;;;;;;;29.33;7.60;;;11.50;99.30;;;;;;5024128;28;20133;-69
2021/08/26 03:22:36;;;;;;;35.53;8.13;;;11.60;99.40;;;;;;5033599;28;20021;-69
2021/08/26 03:25:02;;;;;;;39.20;8.40;;;11.60;99.30;;;;;;5026296;28;20030;-69
2021/08/26 03:27:28;;;;;;;39.53;8.75;;;11.50;99.30;;;;;;5035840;28;20051;-69
2021/08/26 03:29:53;;;;;;;34.45;8.35;;;11.50;99.30;;;;;;5037876;28;20437;-69
2021/08/26 03:32:19;;;;;;;50.05;8.77;;;11.60;99.30;;;;;;5025963;28;20041;-69
2021/08/26 03:34:45;;;;;;;44.75;8.20;;;11.60;99.30;;;;;;5035176;28;20464;-69
2021/08/26 03:37:10;;;;;;;29.52;7.35;;;11.50;99.30;;;;;;5036107;28;20029;-70
2021/08/26 03:39:36;;;;;;;38.58;7.78;;;11.50;99.30;;;;;;5034976;28;20021;-70
2021/08/26 03:42:02;;;;;;;31.13;7.63;;;11.50;99.30;;;;;;5030847;28;20048;-68
2021/08/26 03:44:28;;;;;;;46.28;7.88;;;11.40;99.40;;;;;;5036156;28;20029;-69
2021/08/26 03:46:53;;;;;;;43.78;8.02;;;11.30;99.30;;;;;;5031932;28;20028;-69
2021/08/26 03:49:19;;;;;;;32.85;7.50;;;11.30;99.40;;;;;;5040994;28;20123;-69
2021/08/26 03:51:45;;;;;;;39.92;8.02;;;11.30;99.40;;;;;;5025423;28;20029;-69
2021/08/26 03:54:10;;;;;;;34.85;7.70;;;11.20;99.40;;;;;;5038074;28;20372;-70
2021/08/26 03:56:36;;;;;;;38.63;8.00;;;11.10;99.40;;;;;;5024591;28;20052;-69
2021/08/26 03:59:01;;;;;;;39.80;8.00;;;11.10;99.40;;;;;;5023221;28;20037;-69
2021/08/26 04:01:27;;;;;;;45.92;8.18;;;11.00;99.40;;;;;;5026929;28;20115;-69
2021/08/26 04:03:53;;;;;;;45.10;7.45;;;11.00;99.40;;;;;;5035789;28;20029;-69
2021/08/26 04:06:18;;;;;;;35.88;7.90;;;11.00;99.50;;;;;;5035613;28;20032;-69
2021/08/26 04:08:44;;;;;;;35.45;7.57;;;10.90;99.50;;;;;;5035363;28;20177;-70
2021/08/26 04:11:10;;;;;;;31.35;7.75;;;11.00;99.50;;;;;;5021991;28;20481;-70
2021/08/26 04:13:35;;;;;;;35.83;8.60;;;11.00;99.50;;;;;;5032285;28;20041;-70
2021/08/26 04:16:01;;;;;;;39.90;8.13;;;11.00;99.50;;;;;;5029171;28;20037;-69
2021/08/26 04:18:26;;;;;;;32.00;7.45;;;11.00;99.50;;;;;;5036426;28;20033;-69
2021/08/26 04:20:52;;;;;;;38.08;8.10;;;11.10;99.50;;;;;;5033130;28;20049;-63
2021/08/26 04:23:18;;;;;;;35.95;8.02;;;11.10;99.50;;;;;;5034438;28;20435;-65
2021/08/26 04:25:43;;;;;;;24.77;7.57;;;11.10;99.50;;;;;;5034407;28;20104;-65
2021/08/26 04:28:09;;;;;;;38.42;8.27;;;11.20;99.50;;;;;;5030708;28;20036;-64
2021/08/26 04:30:35;;;;;;;31.55;8.57;;;11.20;99.50;;;;;;5033265;28;20029;-65
2021/08/26 04:33:02;;;;;;;35.83;7.88;;;11.30;99.50;;;;;;5028719;28;20030;-64
2021/08/26 04:35:27;;;;;;;45.90;8.20;;;11.30;99.50;;;;;;5025496;28;20029;-64
2021/08/26 04:37:53;;;;;;;35.22;7.75;;;11.30;99.50;;;;;;5032535;28;20040;-65
2021/08/26 04:40:19;;;;;;;31.85;7.85;;;11.40;99.60;;;;;;5037541;28;20443;-65
2021/08/26 04:42:45;;;;;;;41.08;7.75;;;11.40;99.50;;;;;;5026829;28;20021;-65
2021/08/26 04:45:10;;;;;;;46.28;8.98;;;11.40;99.50;;;;;;5032947;28;20044;-65
2021/08/26 04:47:36;;;;;;;28.67;8.07;;;11.50;99.50;;;;;;5027298;28;20025;-64
2021/08/26 04:50:03;;;;;;;27.83;6.82;;;11.50;99.50;;;;;;5038408;28;20029;-64
2021/08/26 04:52:29;;;;;;;39.38;7.63;;;11.50;99.50;;;;;;5028368;28;22045;-65
2021/08/26 04:54:54;;;;;;;26.30;7.50;;;11.50;99.50;;;;;;5035258;28;20277;-65
2021/08/26 04:57:20;;;;;;;37.22;8.00;;;11.60;99.50;;;;;;5034225;28;20188;-65
2021/08/26 04:59:45;;;;;;;28.27;7.65;;;11.60;99.50;;;;;;5030314;28;20130;-65
2021/08/26 05:02:11;;;;;;;39.30;8.00;;;11.70;99.50;;;;;;5025242;28;20040;-64
2021/08/26 05:04:37;;;;;;;43.78;8.20;;;11.70;99.50;;;;;;5025767;28;20032;-65
2021/08/26 05:07:03;;;;;;;38.22;7.68;;;11.80;99.50;;;;;;5030261;28;20108;-64
2021/08/26 05:09:28;;;;;;;33.55;7.72;;;11.70;99.40;;;;;;5034392;28;20070;-65
2021/08/26 05:11:55;;;;;;;38.85;8.05;;;11.80;99.40;;;;;;5023283;28;20108;-64
2021/08/26 05:14:21;;;;;;;35.75;6.75;;;11.80;99.30;;;;;;5039322;28;20482;-64
2021/08/26 05:16:47;;;;;;;32.38;6.78;;;11.80;99.30;;;;;;5028632;28;20069;-65
2021/08/26 05:19:12;;;;;;;29.02;6.57;;;11.80;99.30;;;;;;5025473;28;20047;-65
2021/08/26 05:21:38;;;;;;;38.67;7.47;;;11.80;99.30;;;;;;5024844;28;20085;-64
2021/08/26 05:24:04;;;;;;;40.05;6.70;;;11.90;99.40;;;;;;5028528;28;20208;-64
2021/08/26 05:26:29;;;;;;;26.20;6.88;;;11.90;99.30;;;;;;5034461;28;20052;-65
2021/08/26 05:28:55;;;;;;;25.88;6.43;;;11.90;99.30;;;;;;5028910;28;20120;-65
2021/08/26 05:31:21;;;;;;;37.83;6.47;;;12.00;99.30;;;;;;5036843;28;20509;-65
2021/08/26 05:33:46;;;;;;;23.00;6.80;;;12.00;99.30;;;;;;5030954;28;20029;-65
2021/08/26 05:36:12;;;;;;;25.95;6.70;;;12.10;99.30;;;;;;5041855;28;20106;-65
2021/08/26 05:38:38;;;;;;;27.08;6.78;;;12.10;99.20;;;;;;5029970;28;20109;-65
2021/08/26 05:41:03;;;;;;;32.42;5.82;;;12.20;99.30;;;;;;5033349;28;20021;-65
2021/08/26 05:43:29;;;;;;;30.75;6.90;;;12.20;99.10;;;;;;5027896;28;20381;-64
2021/08/26 05:45:54;;;;;;;26.17;6.45;;;12.20;99.10;;;;;;5035618;28;20025;-66
2021/08/26 05:48:20;;;;;;;24.98;5.82;;;12.20;99.10;;;;;;5028678;28;20135;-67
2021/08/26 05:50:46;;;;;;;26.70;6.38;;;12.20;99.00;;;;;;5027940;28;20102;-66
2021/08/26 05:53:11;;;;;;;25.65;6.20;;;12.30;99.10;;;;;;5024409;28;20029;-67
2021/08/26 05:55:37;;;;;;;28.92;6.30;;;12.40;99.10;;;;;;5020150;28;20380;-67
2021/08/26 05:58:03;;;;;;;35.22;6.13;;;12.50;99.10;;;;;;5022037;28;20153;-69
2021/08/26 06:00:28;;;;;;;20.77;6.47;;;12.60;99.10;;;;;;5020358;28;20097;-67
2021/08/26 06:02:54;;;;;;;30.40;6.03;;;12.70;99.10;;;;;;5026208;28;20018;-67
2021/08/26 06:05:20;;;;;;;30.02;6.07;;;12.70;99.00;;;;;;5032790;28;20037;-67
2021/08/26 06:07:47;;;;;;;28.70;6.18;;;12.80;99.00;;;;;;5022084;28;20052;-67
2021/08/26 06:10:13;;;;;;;22.52;5.60;;;12.80;99.00;;;;;;5025338;28;20116;-67
2021/08/26 06:12:40;;;;;;;29.52;5.95;;;12.90;99.00;;;;;;5026678;28;20029;-66
2021/08/26 06:15:08;;;;;;;21.88;5.72;;;12.90;99.00;;;;;;5031649;28;20461;-67
2021/08/26 06:17:34;;;;;;;33.00;6.20;;;13.00;99.00;;;;;;5024364;28;20029;-67
2021/08/26 06:20:00;;;;;;;21.95;5.97;;;13.10;99.10;;;;;;5028274;28;20037;-66
2021/08/26 06:22:25;;;;;;;21.98;5.75;;;13.20;99.00;;;;;;5027175;28;20032;-67
2021/08/26 06:24:51;;;;;;;25.38;5.93;;;13.30;99.00;;;;;;5039727;28;20074;-67
2021/08/26 06:27:16;;;;;;;32.92;6.47;;;13.30;99.00;;;;;;5029173;28;20083;-67
2021/08/26 06:29:42;;;;;;;23.75;6.47;;;13.40;99.00;;;;;;5022598;28;20404;-67
2021/08/26 06:32:08;;;;;;;32.58;6.22;;;13.50;98.90;;;;;;5025705;28;20119;-67
2021/08/26 06:34:33;;;;;;;26.08;5.93;;;13.50;98.90;;;;;;5024074;28;20033;-67
2021/08/26 06:37:00;;;;;;;24.10;5.55;;;13.60;98.80;;;;;;5029511;28;20029;-67
2021/08/26 06:39:26;;;;;;;23.00;5.93;;;13.60;98.80;;;;;;5027308;28;20032;-67
2021/08/26 06:41:52;;;;;;;24.63;6.10;;;13.70;98.80;;;;;;5036606;28;20464;-67
2021/08/26 06:44:17;;;;;;;24.27;5.65;;;13.70;98.70;;;;;;5026408;28;20041;-67
2021/08/26 06:46:44;;;;;;;24.98;5.47;;;13.80;98.70;;;;;;5024746;28;20466;-67
2021/08/26 06:49:09;;;;;;;33.40;5.47;;;13.80;98.50;;;;;;5030278;28;20033;-68
2021/08/26 06:51:35;;;;;;;23.73;5.75;;;13.80;98.40;;;;;;5043503;28;20037;-68
2021/08/26 06:54:01;;;;;;;22.08;5.00;;;13.90;98.30;;;;;;5031619;28;20388;-67
2021/08/26 06:56:26;;;;;;;28.45;5.65;;;14.10;98.40;;;;;;5040620;28;20041;-68
2021/08/26 06:58:52;;;;;;;18.83;4.97;;;14.20;98.20;;;;;;5032766;28;20033;-67
2021/08/26 07:01:17;;;;;;;21.90;4.55;;;14.20;97.90;;;;;;5033110;28;20035;-68
2021/08/26 07:03:43;;;;;;;19.75;4.07;;;14.30;97.80;;;;;;5023749;28;20060;-67
2021/08/26 07:06:09;;;;;;;21.40;4.25;;;14.30;97.50;;;;;;5033204;28;20063;-68
2021/08/26 07:08:34;;;;;;;19.23;4.07;;;14.30;97.30;;;;;;5035604;28;20095;-65
2021/08/26 07:11:00;;;;;;;27.63;4.38;;;14.30;96.80;;;;;;5033713;28;20041;-67
2021/08/26 07:13:26;;;;;;;16.88;3.30;;;14.40;96.60;;;;;;5035470;28;20025;-67
2021/08/26 07:15:51;;;;;;;15.15;3.83;;;14.50;96.80;;;;;;5026258;28;20045;-66
2021/08/26 07:18:18;;;;;;;14.60;3.28;;;14.70;97.00;;;;;;5031233;28;20025;-67
2021/08/26 07:20:45;;;;;;;18.20;3.50;;;14.80;96.80;;;;;;5028790;28;20120;-67
2021/08/26 07:23:10;;;;;;;16.73;3.30;;;14.80;96.20;;;;;;5029569;28;20025;-67
2021/08/26 07:25:36;;;;;;;19.58;3.55;;;14.90;95.50;;;;;;5036852;28;20283;-67
2021/08/26 07:28:03;;;;;;;17.52;3.05;;;14.90;95.20;;;;;;5033494;28;20060;-68
2021/08/26 07:30:30;;;;;;;13.75;3.20;;;15.00;94.90;;;;;;5029456;28;20036;-68
2021/08/26 07:32:56;;;;;;;15.57;3.13;;;15.00;94.80;;;;;;5030426;28;20453;-67
2021/08/26 07:35:22;;;;;;;12.45;3.45;;;14.90;94.40;;;;;;5039673;28;20036;-67
2021/08/26 07:37:47;;;;;;;16.85;3.35;;;15.00;94.50;;;;;;5025330;28;20021;-67
2021/08/26 07:40:13;;;;;;;18.98;3.60;;;15.10;94.70;;;;;;5035673;28;20032;-66
2021/08/26 07:42:39;;;;;;;11.07;3.13;;;15.10;95.00;;;;;;5022600;28;20618;-66
2021/08/26 07:45:06;;;;;;;13.63;3.38;;;15.20;95.10;;;;;;5038221;28;20400;-67
2021/08/26 07:47:31;;;;;;;11.35;2.80;;;15.10;94.20;;;;;;5033345;28;20290;-68
2021/08/26 07:49:57;;;;;;;15.38;3.53;;;15.00;93.80;;;;;;5020687;28;20491;-68
2021/08/26 07:52:23;;;;;;;16.67;3.42;;;15.00;94.40;;;;;;5038182;28;20190;-67
2021/08/26 07:54:49;;;;;;;11.35;3.30;;;15.10;94.50;;;;;;5036216;28;20043;-68
2021/08/26 07:57:15;;;;;;;14.98;2.92;;;15.00;93.80;;;;;;5038941;28;20433;-68
2021/08/26 07:59:40;;;;;;;16.10;2.90;;;15.00;92.80;;;;;;5034068;28;20033;-68
2021/08/26 08:02:07;;;;;;;15.52;2.40;;;15.00;93.60;;;;;;5031539;28;20183;-68
2021/08/26 08:04:33;;;;;;;18.85;3.33;;;15.00;93.30;;;;;;5033866;28;20112;-68
2021/08/26 08:06:59;;;;;;;16.63;3.00;;;15.00;93.50;;;;;;5037130;28;20183;-68
2021/08/26 08:09:24;;;;;;;15.52;2.75;;;15.00;92.30;;;;;;5028827;28;20037;-68
2021/08/26 08:11:50;;;;;;;11.40;3.22;;;15.20;92.40;;;;;;5033616;28;20475;-67
2021/08/26 08:14:15;;;;;;;9.80;2.65;;;15.30;91.70;;;;;;5027169;28;20224;-67
2021/08/26 08:16:41;;;;;;;12.38;2.53;;;15.50;92.50;;;;;;5039209;28;20034;-68
2021/08/26 08:19:06;;;;;;;13.85;2.83;;;15.40;90.30;;;;;;5031556;28;20029;-67
2021/08/26 08:21:32;;;;;;;8.75;2.25;;;15.30;91.20;;;;;;5031043;28;20116;-68
2021/08/26 08:23:58;;;;;;;11.73;2.38;;;15.40;90.80;;;;;;5021984;28;20232;-69
2021/08/26 08:26:24;;;;;;;10.13;2.47;;;15.30;91.00;;;;;;5031371;28;20060;-68
2021/08/26 08:28:50;;;;;;;9.77;1.98;;;15.40;91.10;;;;;;5025333;28;20127;-68
2021/08/26 08:31:15;;;;;;;10.02;2.30;;;15.40;91.70;;;;;;5033093;28;20207;-69
2021/08/26 08:33:44;;;;;;;8.55;2.00;;;15.40;90.20;;;;;;5030462;28;20529;-65
2021/08/26 08:36:09;;;;;;;13.65;2.75;;;15.50;89.40;;;;;;5031052;28;20029;-65
2021/08/26 08:38:36;;;;;;;9.32;2.10;;;15.50;88.60;;;;;;5027623;28;20504;-70
2021/08/26 08:41:02;;;;;;;10.98;2.17;;;15.80;89.80;;;;;;5035124;28;20021;-69
2021/08/26 08:43:28;;;;;;;8.70;1.70;;;15.80;89.30;;;;;;5029584;28;20030;-69
2021/08/26 08:45:55;;;;;;;9.10;1.90;;;16.00;88.60;;;;;;5026240;28;20055;-71
2021/08/26 08:48:22;;;;;;;16.17;2.05;;;15.90;88.40;;;;;;5029185;28;20021;-70
2021/08/26 08:50:50;;;;;;;8.70;1.77;;;15.90;89.10;;;;;;5035537;28;20235;-72
2021/08/26 08:53:17;;;;;;;6.38;1.80;;;15.80;88.70;;;;;;5031210;28;20036;-65
2021/08/26 08:55:44;;;;;;;7.90;1.60;;;15.80;88.40;;;;;;5032423;28;20025;-66
2021/08/26 08:58:11;;;;;;;10.20;1.70;;;15.90;89.40;;;;;;5019820;28;20029;-69
2021/08/26 09:00:38;;;;;;;5.60;1.38;;;16.00;88.10;;;;;;5026804;28;20074;-68
2021/08/26 09:03:04;;;;;;;10.38;2.03;;;16.20;88.10;;;;;;5026256;28;20042;-64
2021/08/26 09:05:51;;;;;;;9.02;1.70;;;16.00;85.70;;;;;;5030530;28;20025;-65
2021/08/26 09:08:17;;;;;;;8.77;1.92;;;16.00;88.30;;;;;;5020060;28;20144;-65
2021/08/26 09:10:43;;;;;;;10.98;2.03;;;15.90;87.20;;;;;;5029842;28;20136;-65
2021/08/26 09:13:09;;;;;;;9.68;1.73;;;15.80;88.80;;;;;;5020320;28;20614;-65
2021/08/26 09:15:35;;;;;;;12.13;1.60;;;15.70;87.60;;;;;;5031822;28;20439;-64
2021/08/26 09:18:19;;;;;;;10.75;1.65;;;15.80;87.30;;;;;;5027819;28;20221;-64
2021/08/26 09:21:00;;;;;;;6.75;1.70;;;15.80;86.80;;;;;;5037794;28;20032;-65
2021/08/26 09:23:29;;;;;;;8.45;1.63;;;15.90;87.40;;;;;;5030971;28;20039;-65
2021/08/26 09:26:14;;;;;;;8.20;1.90;;;15.90;86.10;;;;;;5030219;28;20041;-65
2021/08/26 09:28:39;;;;;;;7.68;1.88;;;15.80;87.30;;;;;;5032299;28;20342;-64
2021/08/26 09:31:18;;;;;;;7.75;1.25;;;15.70;86.30;;;;;;5029286;28;20032;-64
2021/08/26 09:33:51;;;;;;;8.02;1.70;;;15.70;85.50;;;;;;5028145;28;20033;-64
2021/08/26 09:36:18;;;;;;;6.32;1.38;;;15.70;85.10;;;;;;5021372;28;20087;-65
2021/08/26 09:38:49;;;;;;;6.32;1.50;;;15.80;86.30;;;;;;5033469;28;20060;-64
2021/08/26 09:41:16;;;;;;;5.88;1.33;;;15.90;85.00;;;;;;5024230;28;20225;-65
2021/08/26 09:43:42;;;;;;;6.88;1.40;;;16.10;86.10;;;;;;5033207;28;20115;-64
2021/08/26 09:46:07;;;;;;;6.35;1.38;;;16.30;85.00;;;;;;5029881;28;20065;-65
2021/08/26 09:48:33;;;;;;;11.02;1.63;;;16.40;84.00;;;;;;5034513;28;20514;-65
2021/08/26 09:50:58;;;;;;;6.85;1.40;;;16.30;82.40;;;;;;5018320;28;20114;-65
2021/08/26 09:53:34;;;;;;;5.43;1.35;;;16.40;82.50;;;;;;5029221;28;20112;-64
2021/08/26 09:56:06;;;;;;;5.80;1.23;;;16.50;82.50;;;;;;5037558;28;20115;-64
2021/08/26 09:58:33;;;;;;;6.25;1.17;;;16.40;82.00;;;;;;5035841;28;20124;-69
2021/08/26 10:01:17;;;;;;;8.75;0.85;;;16.40;80.80;;;;;;5034110;28;20033;-69
2021/08/26 10:03:43;;;;;;;5.47;1.20;;;16.60;81.50;;;;;;5022141;28;20026;-68
2021/08/26 10:06:13;;;;;;;8.43;1.15;;;16.80;81.80;;;;;;5037954;28;20029;-68
2021/08/26 10:08:42;;;;;;;3.60;1.20;;;17.00;80.40;;;;;;5027592;28;20029;-68
2021/08/26 10:11:09;;;;;;;6.90;1.17;;;17.10;78.90;;;;;;5030593;28;20351;-68
2021/08/26 10:13:37;;;;;;;4.55;1.08;;;17.00;78.80;;;;;;5026189;28;20030;-68
2021/08/26 10:16:03;;;;;;;8.35;1.27;;;17.30;77.30;;;;;;5029768;28;20076;-68
2021/08/26 10:18:29;;;;;;;4.45;1.00;;;17.70;74.90;;;;;;5024904;28;20493;-68
2021/08/26 10:20:56;;;;;;;3.70;1.08;;;17.80;72.80;;;;;;5023863;28;20032;-68
2021/08/26 10:23:24;;;;;;;4.40;0.68;;;17.80;73.00;;;;;;5029523;28;20041;-68
2021/08/26 10:25:52;;;;;;;6.00;0.95;;;18.00;71.40;;;;;;5025492;28;20045;-69
2021/08/26 10:28:19;;;;;;;6.47;1.33;;;17.80;68.00;;;;;;5034848;28;20522;-68
2021/08/26 10:30:45;;;;;;;4.07;0.55;;;17.90;68.60;;;;;;5041496;28;20036;-69
2021/08/26 10:33:16;;;;;;;3.55;0.60;;;17.80;64.80;;;;;;5025761;28;20029;-69
2021/08/26 10:35:51;;;;;;;2.15;0.60;;;18.00;65.90;;;;;;5028363;28;20079;-64
2021/08/26 10:38:28;;;;;;;5.72;0.98;;;18.20;65.70;;;;;;5033205;28;20796;-65
2021/08/26 10:41:00;;;;;;;4.32;0.90;;;18.40;63.90;;;;;;5026010;28;20032;-64
2021/08/26 10:43:39;;;;;;;2.58;0.70;;;18.40;64.00;;;;;;5039326;28;20304;-65
2021/08/26 10:46:07;;;;;;;4.85;1.02;;;18.70;65.50;;;;;;5028408;28;20436;-65
2021/08/26 10:48:33;;;;;;;4.13;0.85;;;19.00;63.80;;;;;;5025076;28;20057;-67
2021/08/26 10:51:04;;;;;;;3.42;0.93;;;18.80;65.70;;;;;;5037040;28;20025;-68
2021/08/26 10:53:33;;;;;;;4.07;0.70;;;18.80;64.10;;;;;;5032940;28;20083;-67
2021/08/26 10:56:16;;;;;;;4.35;0.70;;;18.50;68.90;;;;;;5029903;28;20037;-68
2021/08/26 10:58:42;;;;;;;4.40;0.82;;;18.10;68.20;;;;;;5033313;28;20623;-67
2021/08/26 11:01:10;;;;;;;2.55;0.65;;;18.00;67.40;;;;;;5030288;28;20033;-66
2021/08/26 11:06:27;;;;;;;5.18;0.63;;;18.90;67.30;;;;;;5028797;28;20196;-67
2021/08/26 11:08:55;;;;;;;4.35;0.70;;;18.90;62.20;;;;;;5035481;28;20070;-66
2021/08/26 11:11:29;;;;;;;2.80;0.65;;;19.20;63.90;;;;;;5029178;28;20032;-64
2021/08/26 11:14:04;;;;;;;3.15;0.55;;;19.80;62.80;;;;;;5033740;28;20142;-66
2021/08/26 11:16:41;;;;;;;5.07;1.05;;;19.70;59.90;;;;;;5038123;28;20044;-65
2021/08/26 11:19:08;;;;;;;4.35;1.00;;;19.10;61.40;;;;;;5036151;28;20029;-64
2021/08/26 11:21:45;;;;;;;3.28;0.70;;;18.80;64.40;;;;;;5025146;28;20075;-65
2021/08/26 11:24:18;;;;;;;4.40;0.45;;;18.60;64.70;;;;;;5030426;28;20091;-69
2021/08/26 11:27:15;;;;;;;2.95;0.52;;;18.50;66.90;;;;;;5043492;28;20052;-67
2021/08/26 11:29:41;;;;;;;4.60;0.80;;;18.10;65.40;;;;;;5048424;28;20037;-68
2021/08/26 11:32:11;;;;;;;3.25;0.80;;;17.90;66.30;;;;;;5031935;28;20043;-68
2021/08/26 11:34:40;;;;;;;6.00;0.50;;;18.60;64.50;;;;;;5035538;28;20307;-69
2021/08/26 11:37:07;;;;;;;4.72;0.82;;;19.50;63.00;;;;;;5041128;28;20562;-69
2021/08/26 11:39:38;;;;;;;2.45;0.60;;;20.30;63.60;;;;;;5041858;28;20401;-70
2021/08/26 11:42:21;;;;;;;4.55;0.57;;;19.90;60.50;;;;;;5038391;28;20084;-69
2021/08/26 11:45:07;;;;;;;1.80;0.55;;;19.10;60.20;;;;;;5025012;28;20036;-69
2021/08/26 11:47:35;;;;;;;4.63;0.70;;;18.60;62.00;;;;;;5028736;28;22579;-69
2021/08/26 11:50:14;;;;;;;3.63;0.85;;;18.60;63.80;;;;;;5042753;28;20028;-69
2021/08/26 11:52:41;;;;;;;2.55;0.50;;;18.30;62.40;;;;;;5033943;28;20029;-69
2021/08/26 11:55:07;;;;;;;3.70;0.63;;;18.10;62.10;;;;;;5036813;28;20040;-68
2021/08/26 11:57:33;;;;;;;0.80;0.22;;;18.10;61.40;;;;;;5034238;28;20035;-68
2021/08/26 12:00:11;;;;;;;2.05;0.45;;;18.40;62.10;;;;;;5037332;28;20344;-68
2021/08/26 12:02:38;;;;;;;3.95;0.50;;;19.40;59.20;;;;;;5030315;28;20233;-69
2021/08/26 12:05:09;;;;;;;2.05;0.60;;;20.00;56.80;;;;;;5032418;28;20031;-69
2021/08/26 12:07:41;;;;;;;3.10;0.40;;;20.10;56.20;;;;;;5035979;28;20056;-69
2021/08/26 12:10:07;;;;;;;2.97;0.43;;;20.10;56.60;;;;;;5036628;28;20120;-68
2021/08/26 12:12:33;;;;;;;1.98;0.45;;;19.30;56.70;;;;;;5027127;28;20196;-69
2021/08/26 12:14:58;;;;;;;3.58;0.43;;;19.50;53.20;;;;;;5038025;28;20220;-68
2021/08/26 12:17:24;;;;;;;2.40;0.40;;;20.60;55.20;;;;;;5029996;28;20032;-69
2021/08/26 12:19:53;;;;;;;6.57;0.70;;;21.00;54.60;;;;;;5035206;28;20032;-69
2021/08/26 12:22:24;;;;;;;2.88;0.10;;;20.80;52.50;;;;;;5029327;28;20033;-68
2021/08/26 12:24:56;;;;;;;2.97;0.30;;;20.60;53.60;;;;;;5038896;28;20146;-68
2021/08/26 12:27:25;;;;;;;2.13;0.57;;;21.30;53.30;;;;;;5038360;28;20037;-68
2021/08/26 12:29:51;;;;;;;1.75;0.35;;;20.80;53.30;;;;;;5036303;28;20043;-69
2021/08/26 12:32:32;;;;;;;2.67;0.65;;;20.10;53.40;;;;;;5033378;28;20059;-69
2021/08/26 12:35:20;;;;;;;1.60;0.65;;;21.00;56.70;;;;;;5032222;28;20048;-70
2021/08/26 12:38:01;;;;;;;2.75;0.57;;;20.50;53.80;;;;;;5028981;28;20495;-70
2021/08/26 12:40:30;;;;;;;3.80;0.50;;;20.00;54.20;;;;;;5031291;28;20160;-69
2021/08/26 12:43:04;;;;;;;3.95;0.60;;;19.60;55.60;;;;;;5036290;28;20151;-69
2021/08/26 12:45:35;;;;;;;4.43;0.57;;;20.20;55.80;;;;;;5032859;28;20087;-70
2021/08/26 12:48:23;;;;;;;3.63;0.40;;;20.50;53.30;;;;;;5033944;28;20086;-69